首页
METAR-TAF:

METAR-TAF

机场 :

傑克遜斯國際機場

莫尔兹比港, 巴布亞新幾內亞

纬度: 09-26S, 经度: 147-13E, 海拔: 38米

当前天气观测

该预报发布于1小时和20分钟前的03:00 UTC
风速12节,风向南转南东
温度 31°C
湿度 59%
气压 1010 hPa
能见度10公里或以上
散云层高于4000英尺

METAR: AYPY 230300Z 16012KT 9999 HZ SCT040 31/22 Q1010 RMK: DIST CB FM N/E

时间: 14:20 (04:20 UTC)

预报

该预报发布于4小时和51分钟前的23:29 UTC
预报有效从23日的 00点(UTC)到 23日的 24点(UTC)
风速15节,风向
能见度10公里或以上
少量云层高于1800英尺
散云层高于14000英尺
从 23日的 0400点(UTC)
风速15节,风向
能见度10公里或以上
散云层高于2000英尺
散云层高于14000英尺

TAF: AYPY 222329Z 2300/2324 17015KT 9999 FEW018 SCT140 FM230400 17015KT 9999 SCT020 SCT140

超过4000个机场的气象观测和天气预报(METAR&TAF报告)。

可查询的气象台以黄色和红色小点在地图上表示。

将鼠标移到小点上方,可查看气象台名称。

然后点击查看天气观测和预报。

如需切换地图:点击带黑十字的绿色按钮放大地图;点击带横线的绿色按钮缩小地图;或者点击绿色箭头查看邻近地区的地图。


METAR-TAF: